Time;durP1;ratioP1;P1;durP2;ratioP2;P2;SDS_P1;SDS_P2;PMS_P1;PMS_P2;Temp;Humidity;BMP_temperature;BMP_pressure;BME280_temperature;BME280_humidity;BME280_pressure;Samples;Min_cycle;Max_cycle;Signal;HPM_P1;HPM_P2
2021/01/20 00:00:06;;;;;;;14.35;10.30;;;7.80;90.10;;;;;;5081027;27;20043;-79
2021/01/20 00:02:32;;;;;;;17.02;10.77;;;7.80;90.00;;;;;;5133769;27;20043;-81
2021/01/20 00:04:58;;;;;;;13.43;11.10;;;7.80;90.00;;;;;;5088441;28;20027;-83
2021/01/20 00:07:24;;;;;;;12.60;10.77;;;7.80;90.00;;;;;;5127371;27;20038;-84
2021/01/20 00:09:49;;;;;;;19.85;11.80;;;7.70;90.00;;;;;;5091899;28;20050;-82
2021/01/20 00:12:15;;;;;;;16.55;10.73;;;7.70;90.00;;;;;;5102144;27;20474;-82
2021/01/20 00:14:41;;;;;;;13.98;10.57;;;7.70;90.10;;;;;;5111891;27;20433;-83
2021/01/20 00:17:07;;;;;;;15.02;10.98;;;7.70;90.10;;;;;;5110999;27;20039;-82
2021/01/20 00:19:33;;;;;;;16.90;11.13;;;7.70;90.20;;;;;;5097694;27;20030;-84
2021/01/20 00:21:59;;;;;;;18.15;12.10;;;7.60;90.10;;;;;;5117103;27;20866;-82
2021/01/20 00:24:25;;;;;;;19.48;11.43;;;7.60;90.10;;;;;;5107190;27;20036;-82
2021/01/20 00:26:50;;;;;;;20.42;12.00;;;7.60;90.20;;;;;;5130191;27;20088;-82
2021/01/20 00:29:16;;;;;;;17.75;11.10;;;7.60;90.20;;;;;;5109270;27;20042;-81
2021/01/20 00:31:42;;;;;;;16.25;12.07;;;7.60;90.20;;;;;;5103404;27;20131;-81
2021/01/20 00:34:10;;;;;;;18.15;11.38;;;7.60;90.20;;;;;;5114245;27;20074;-81
2021/01/20 00:36:36;;;;;;;22.88;12.75;;;7.50;90.00;;;;;;5118437;27;20028;-81
2021/01/20 00:39:03;;;;;;;17.90;11.65;;;7.50;90.10;;;;;;5116407;27;20033;-81
2021/01/20 00:41:29;;;;;;;16.27;11.60;;;7.50;90.20;;;;;;5122358;27;20032;-81
2021/01/20 00:43:55;;;;;;;16.40;12.20;;;7.50;90.20;;;;;;5117825;27;20039;-81
2021/01/20 00:46:21;;;;;;;13.88;11.43;;;7.50;90.20;;;;;;5136233;27;20423;-80
2021/01/20 00:48:46;;;;;;;15.70;11.05;;;7.50;90.20;;;;;;5098222;27;20407;-81
2021/01/20 00:51:13;;;;;;;20.98;12.85;;;7.50;90.20;;;;;;5096854;27;20035;-81
2021/01/20 00:53:39;;;;;;;12.70;10.88;;;7.50;90.20;;;;;;5074389;28;20082;-81
2021/01/20 00:56:06;;;;;;;17.15;11.73;;;7.40;90.40;;;;;;5126792;27;20028;-82
2021/01/20 00:58:32;;;;;;;18.33;11.73;;;7.40;90.10;;;;;;5126815;27;20031;-82
2021/01/20 01:00:58;;;;;;;11.98;10.60;;;7.50;90.20;;;;;;5108818;28;20463;-82
2021/01/20 01:03:24;;;;;;;16.90;11.40;;;7.40;90.10;;;;;;5122890;27;20118;-82
2021/01/20 01:05:50;;;;;;;16.63;11.50;;;7.40;90.10;;;;;;5110786;27;20039;-82
2021/01/20 01:08:15;;;;;;;20.77;11.93;;;7.40;90.10;;;;;;5109478;28;20084;-82
2021/01/20 01:10:41;;;;;;;13.73;11.18;;;7.40;90.10;;;;;;5135540;27;20030;-82
2021/01/20 01:13:07;;;;;;;17.17;11.57;;;7.30;90.00;;;;;;5121347;27;20118;-82
2021/01/20 01:15:33;;;;;;;14.07;10.32;;;7.40;90.00;;;;;;5101898;27;20042;-82
2021/01/20 01:17:59;;;;;;;16.02;10.93;;;7.40;90.00;;;;;;5125559;27;20039;-82
2021/01/20 01:20:25;;;;;;;19.73;11.00;;;7.40;90.00;;;;;;5122197;27;20115;-82
2021/01/20 01:22:50;;;;;;;16.15;11.10;;;7.30;90.00;;;;;;5107866;27;20034;-82
2021/01/20 01:25:16;;;;;;;17.52;10.95;;;7.40;89.90;;;;;;5126053;27;20139;-82
2021/01/20 01:27:42;;;;;;;17.48;10.70;;;7.40;89.70;;;;;;5102796;27;20110;-82
2021/01/20 01:30:08;;;;;;;17.73;11.48;;;7.40;89.70;;;;;;5103147;27;20678;-82
2021/01/20 01:32:34;;;;;;;18.90;11.35;;;7.40;89.60;;;;;;5107340;27;20051;-82
2021/01/20 01:35:00;;;;;;;17.33;11.60;;;7.40;89.60;;;;;;5137722;27;20028;-82
2021/01/20 01:37:26;;;;;;;13.65;10.23;;;7.40;89.30;;;;;;5139244;27;20030;-82
2021/01/20 01:39:52;;;;;;;15.25;10.18;;;7.30;89.40;;;;;;5101552;28;20111;-82
2021/01/20 01:42:28;;;;;;;17.35;11.02;;;7.40;89.10;;;;;;5114646;27;20042;-82
2021/01/20 01:44:54;;;;;;;15.38;10.07;;;7.50;89.30;;;;;;5118792;27;20500;-82
2021/01/20 01:47:20;;;;;;;19.70;11.07;;;7.40;89.10;;;;;;5135180;27;20027;-82
2021/01/20 01:49:46;;;;;;;16.42;10.80;;;7.40;89.00;;;;;;5098274;27;20380;-82
2021/01/20 01:52:13;;;;;;;15.32;10.60;;;7.50;89.00;;;;;;5101479;27;20035;-82
2021/01/20 01:54:40;;;;;;;14.65;10.20;;;7.50;89.00;;;;;;5124110;27;20030;-82
2021/01/20 01:57:06;;;;;;;12.65;9.85;;;7.40;88.80;;;;;;5118720;27;20495;-82
2021/01/20 01:59:32;;;;;;;12.68;9.27;;;7.50;88.70;;;;;;5111276;27;20027;-82
2021/01/20 02:01:57;;;;;;;15.02;10.27;;;7.60;88.60;;;;;;5107424;27;20160;-82
2021/01/20 02:04:23;;;;;;;14.18;9.82;;;7.60;88.60;;;;;;5136599;27;20057;-80
2021/01/20 02:06:57;;;;;;;16.00;9.75;;;7.60;88.40;;;;;;5113032;27;20108;-82
2021/01/20 02:09:24;;;;;;;14.98;9.63;;;7.60;88.00;;;;;;5135033;27;20124;-82
2021/01/20 02:12:15;;;;;;;15.43;9.65;;;7.60;88.00;;;;;;5128066;27;20034;-83
2021/01/20 02:14:52;;;;;;;16.50;9.27;;;7.70;87.70;;;;;;5127715;27;20039;-83
2021/01/20 02:17:42;;;;;;;17.33;9.27;;;7.70;87.70;;;;;;5123371;27;20046;-83
2021/01/20 02:20:21;;;;;;;15.55;9.85;;;7.70;87.60;;;;;;5127219;27;20042;-83
2021/01/20 02:22:51;;;;;;;17.77;9.77;;;7.70;87.70;;;;;;5131439;27;20043;-83
2021/01/20 02:25:53;;;;;;;13.52;9.43;;;7.70;87.60;;;;;;5132078;27;20467;-83
2021/01/20 02:28:23;;;;;;;12.98;9.75;;;7.60;87.30;;;;;;5132847;27;20058;-81
2021/01/20 02:30:50;;;;;;;19.13;10.18;;;7.70;87.50;;;;;;5128394;27;20487;-80
2021/01/20 02:33:22;;;;;;;14.52;10.68;;;7.70;87.50;;;;;;5133407;27;20042;-80
2021/01/20 02:35:55;;;;;;;15.02;10.48;;;7.60;87.50;;;;;;5131924;27;20062;-80
2021/01/20 02:38:22;;;;;;;;;;;7.60;87.60;;;;;;5126095;27;20065;-80
2021/01/20 02:40:48;;;;;;;13.48;10.73;;;7.60;87.70;;;;;;5110704;27;19923;-81
2021/01/20 02:43:20;;;;;;;17.65;10.63;;;7.50;88.10;;;;;;5128993;27;20042;-80
2021/01/20 02:45:46;;;;;;;17.63;10.60;;;7.50;88.30;;;;;;5125511;27;20076;-80
2021/01/20 02:48:11;;;;;;;13.50;11.25;;;7.40;88.50;;;;;;5129832;27;20028;-80
2021/01/20 02:50:37;;;;;;;18.17;11.10;;;7.40;88.70;;;;;;5123111;27;20027;-81
2021/01/20 02:53:19;;;;;;;15.52;11.15;;;7.40;88.80;;;;;;5132218;27;20496;-80
2021/01/20 02:55:58;;;;;;;17.70;11.15;;;7.40;88.90;;;;;;5126467;27;20051;-80
2021/01/20 02:58:28;;;;;;;14.10;10.85;;;7.40;88.90;;;;;;5127652;27;20041;-80
2021/01/20 03:00:59;;;;;;;16.52;11.05;;;7.40;89.00;;;;;;5129150;27;20667;-80
2021/01/20 03:03:26;;;;;;;16.88;11.90;;;7.40;89.00;;;;;;5104248;27;20046;-80
2021/01/20 03:05:53;;;;;;;16.80;11.75;;;7.40;89.10;;;;;;5114852;27;20067;-80
2021/01/20 03:08:19;;;;;;;20.38;11.82;;;7.40;89.10;;;;;;5130921;27;20450;-80
2021/01/20 03:10:45;;;;;;;19.05;12.73;;;7.40;89.20;;;;;;5128393;27;20058;-80
2021/01/20 03:13:12;;;;;;;17.83;11.80;;;7.30;89.20;;;;;;5115892;27;20042;-80
2021/01/20 03:15:40;;;;;;;16.25;11.50;;;7.30;89.30;;;;;;5134411;27;20041;-80
2021/01/20 03:18:07;;;;;;;14.98;11.85;;;7.30;89.30;;;;;;5130655;27;20036;-80
2021/01/20 03:20:37;;;;;;;17.60;11.98;;;7.30;89.20;;;;;;5134932;27;20047;-80
2021/01/20 03:23:03;;;;;;;19.48;11.70;;;7.30;89.20;;;;;;5136477;27;20039;-80
2021/01/20 03:25:29;;;;;;;18.13;11.60;;;7.20;89.20;;;;;;5130439;27;20028;-80
2021/01/20 03:27:54;;;;;;;18.50;11.93;;;7.30;89.20;;;;;;5132311;27;20486;-80
2021/01/20 03:30:21;;;;;;;16.42;12.00;;;7.30;89.10;;;;;;5103857;27;20023;-80
2021/01/20 03:32:46;;;;;;;16.50;11.60;;;7.30;89.00;;;;;;5088245;27;20050;-81
2021/01/20 03:35:13;;;;;;;20.70;13.02;;;7.20;89.00;;;;;;5110432;27;20028;-81
2021/01/20 03:37:38;;;;;;;18.52;12.30;;;7.20;89.00;;;;;;5098020;27;20030;-81
2021/01/20 03:40:06;;;;;;;15.68;12.02;;;7.20;89.00;;;;;;5093348;27;20047;-81
2021/01/20 03:42:32;;;;;;;16.95;12.27;;;7.20;89.00;;;;;;5094701;28;20047;-81
2021/01/20 03:44:58;;;;;;;18.80;12.20;;;7.30;89.00;;;;;;5083100;27;20051;-80
2021/01/20 03:47:26;;;;;;;23.95;11.63;;;7.30;89.00;;;;;;5098868;28;20100;-80
2021/01/20 03:49:52;;;;;;;16.45;12.40;;;7.30;89.00;;;;;;5114462;27;20399;-81
2021/01/20 03:52:18;;;;;;;19.80;12.45;;;7.30;89.10;;;;;;5122192;27;20031;-81
2021/01/20 03:54:44;;;;;;;18.98;12.43;;;7.20;89.00;;;;;;5119525;27;20039;-81
2021/01/20 03:57:09;;;;;;;21.15;13.27;;;7.20;89.00;;;;;;5132652;27;20034;-81
2021/01/20 03:59:35;;;;;;;16.27;12.05;;;7.20;89.10;;;;;;5112287;27;20029;-80
2021/01/20 04:02:05;;;;;;;17.40;11.98;;;7.20;89.00;;;;;;5087098;27;20083;-81
2021/01/20 04:04:32;;;;;;;19.27;12.20;;;7.30;89.10;;;;;;5120003;27;20035;-83
2021/01/20 04:07:01;;;;;;;19.80;12.30;;;7.20;89.00;;;;;;5131377;27;20031;-84
2021/01/20 04:09:27;;;;;;;16.83;11.13;;;7.30;89.20;;;;;;5119118;27;20079;-84
2021/01/20 04:11:53;;;;;;;16.77;11.65;;;7.30;89.10;;;;;;5098094;27;20036;-84
2021/01/20 04:14:19;;;;;;;17.38;11.70;;;7.20;89.10;;;;;;5115230;27;20452;-84
2021/01/20 04:16:45;;;;;;;19.17;11.18;;;7.30;89.10;;;;;;5097282;28;20471;-84
2021/01/20 04:19:10;;;;;;;17.10;12.13;;;7.30;89.10;;;;;;5134156;27;20039;-84
2021/01/20 04:21:37;;;;;;;17.02;10.82;;;7.40;89.10;;;;;;5127665;27;20059;-84
2021/01/20 04:24:03;;;;;;;13.43;10.20;;;7.40;89.10;;;;;;5093157;27;20077;-84
2021/01/20 04:26:29;;;;;;;14.73;11.80;;;7.40;89.00;;;;;;5115537;27;20034;-84
2021/01/20 04:28:54;;;;;;;15.20;11.75;;;7.40;89.00;;;;;;5112407;27;20043;-84
2021/01/20 04:31:20;;;;;;;17.73;11.43;;;7.40;89.50;;;;;;5093412;27;20118;-81
2021/01/20 04:33:46;;;;;;;16.98;11.27;;;7.40;89.00;;;;;;5098096;28;20479;-80
2021/01/20 04:36:12;;;;;;;15.95;12.05;;;7.40;88.90;;;;;;5117114;27;20046;-80
2021/01/20 04:38:37;;;;;;;15.77;11.68;;;7.40;88.80;;;;;;5120461;27;20035;-80
2021/01/20 04:41:03;;;;;;;14.63;11.50;;;7.50;88.80;;;;;;5110131;27;20096;-80
2021/01/20 04:43:29;;;;;;;16.70;12.27;;;7.50;88.70;;;;;;5113434;27;20096;-83
2021/01/20 04:45:55;;;;;;;15.95;12.07;;;7.60;88.60;;;;;;5129102;27;20031;-83
2021/01/20 04:48:21;;;;;;;15.63;10.65;;;7.60;88.50;;;;;;5147349;27;20445;-83
2021/01/20 04:50:52;;;;;;;17.45;11.55;;;7.60;88.20;;;;;;5142572;27;20047;-83
2021/01/20 04:53:19;;;;;;;17.20;11.63;;;7.60;88.20;;;;;;5127947;27;21033;-84
2021/01/20 04:55:46;;;;;;;14.88;10.95;;;7.60;88.20;;;;;;5129386;27;22453;-84
2021/01/20 04:58:13;;;;;;;14.40;11.23;;;7.60;88.10;;;;;;5130720;27;20038;-84
2021/01/20 05:00:40;;;;;;;13.40;11.18;;;7.60;88.10;;;;;;5139034;27;20043;-80
2021/01/20 05:03:07;;;;;;;16.15;10.52;;;7.60;88.00;;;;;;5117578;27;20043;-80
2021/01/20 05:05:34;;;;;;;14.32;11.30;;;7.50;88.10;;;;;;5127386;27;20505;-80
2021/01/20 05:08:04;;;;;;;18.75;12.02;;;7.50;88.40;;;;;;5104639;28;20490;-80
2021/01/20 05:10:30;;;;;;;18.88;12.10;;;7.40;88.60;;;;;;5135764;27;20040;-80
2021/01/20 05:12:56;;;;;;;19.90;12.02;;;7.40;89.00;;;;;;5096360;27;20402;-81
2021/01/20 05:15:37;;;;;;;15.98;10.80;;;7.30;89.10;;;;;;5114710;27;20032;-80
2021/01/20 05:18:05;;;;;;;16.00;10.68;;;7.30;89.20;;;;;;5113725;28;21087;-80
2021/01/20 05:20:35;;;;;;;18.33;11.02;;;7.30;89.30;;;;;;5117738;27;20110;-80
2021/01/20 05:23:07;;;;;;;15.20;11.18;;;7.20;89.40;;;;;;5131987;27;20047;-80
2021/01/20 05:25:42;;;;;;;15.25;10.50;;;7.30;89.40;;;;;;5118624;27;20058;-80
2021/01/20 05:28:28;;;;;;;18.30;11.85;;;7.20;89.40;;;;;;5131445;27;20035;-81
2021/01/20 05:30:59;;;;;;;14.90;11.10;;;7.30;89.50;;;;;;5129358;27;20114;-80
2021/01/20 05:33:27;;;;;;;13.77;10.65;;;7.20;89.50;;;;;;5123180;27;20035;-81
2021/01/20 05:36:10;;;;;;;15.38;10.95;;;7.20;89.50;;;;;;5099076;27;20031;-80
2021/01/20 05:38:38;;;;;;;15.32;11.20;;;7.20;89.60;;;;;;5122400;27;20485;-81
2021/01/20 05:41:29;;;;;;;17.15;11.75;;;7.20;89.80;;;;;;5122552;27;20042;-81
2021/01/20 05:44:13;;;;;;;15.63;11.43;;;7.30;89.80;;;;;;5128116;27;20043;-81
2021/01/20 05:46:41;;;;;;;13.98;10.85;;;7.30;89.80;;;;;;5090587;27;20083;-81
2021/01/20 05:49:20;;;;;;;15.75;10.55;;;7.30;89.90;;;;;;5131405;27;20047;-81
2021/01/20 05:51:46;;;;;;;12.40;10.73;;;7.30;89.80;;;;;;5111482;27;20028;-80
2021/01/20 05:54:12;;;;;;;14.07;10.60;;;7.30;89.70;;;;;;5099440;27;20046;-80
2021/01/20 05:56:38;;;;;;;13.52;10.38;;;7.40;89.60;;;;;;5116411;27;20030;-81
2021/01/20 05:59:10;;;;;;;14.90;11.63;;;7.50;89.50;;;;;;5141707;27;20180;-80
2021/01/20 06:01:40;;;;;;;14.55;10.48;;;7.40;89.40;;;;;;5141949;27;20027;-81
2021/01/20 06:04:06;;;;;;;16.08;10.90;;;7.50;89.30;;;;;;5122549;27;20123;-81
2021/01/20 06:06:33;;;;;;;16.95;11.00;;;7.50;89.20;;;;;;5130803;27;20031;-81
2021/01/20 06:09:03;;;;;;;16.20;11.02;;;7.50;89.70;;;;;;5134166;27;20465;-82
2021/01/20 06:11:29;;;;;;;17.10;10.98;;;7.50;89.00;;;;;;5100041;28;20034;-82
2021/01/20 06:13:54;;;;;;;16.30;10.75;;;7.60;89.00;;;;;;5127905;27;20113;-82
2021/01/20 06:16:24;;;;;;;14.77;10.15;;;7.60;88.80;;;;;;5081987;27;20489;-82
2021/01/20 06:19:00;;;;;;;15.50;9.80;;;7.60;88.70;;;;;;5125960;27;20031;-82
2021/01/20 06:21:28;;;;;;;12.38;10.10;;;7.60;88.60;;;;;;5125953;27;22577;-81
2021/01/20 06:24:06;;;;;;;13.20;9.38;;;7.60;88.60;;;;;;5139036;27;20071;-81
2021/01/20 06:26:36;;;;;;;16.90;9.70;;;7.60;88.50;;;;;;5140889;27;20036;-81
2021/01/20 06:29:05;;;;;;;14.02;10.52;;;7.60;88.50;;;;;;5136224;27;20096;-81
2021/01/20 06:31:40;;;;;;;13.27;9.55;;;7.60;88.50;;;;;;5130656;27;20048;-81
2021/01/20 06:34:06;;;;;;;15.20;10.77;;;7.60;88.20;;;;;;5131581;27;20104;-85
2021/01/20 06:36:33;;;;;;;14.90;10.25;;;7.60;88.10;;;;;;5118710;27;20062;-81
2021/01/20 06:39:00;;;;;;;14.77;10.35;;;7.60;88.00;;;;;;5139208;27;20435;-82
2021/01/20 06:41:37;;;;;;;11.52;8.93;;;7.70;88.10;;;;;;5088302;27;20065;-81
2021/01/20 06:44:08;;;;;;;13.63;8.82;;;7.60;87.80;;;;;;5101122;27;20051;-82
2021/01/20 06:46:34;;;;;;;11.13;8.98;;;7.70;87.90;;;;;;5128396;27;20383;-82
2021/01/20 06:49:00;;;;;;;12.48;8.57;;;7.70;87.80;;;;;;5133395;27;20041;-82
2021/01/20 06:51:27;;;;;;;10.20;8.60;;;7.70;87.80;;;;;;5132496;27;20052;-82
2021/01/20 06:54:17;;;;;;;9.07;7.93;;;7.70;87.70;;;;;;5102170;27;20053;-82
2021/01/20 06:56:52;;;;;;;12.05;8.77;;;7.70;87.60;;;;;;5131098;27;20035;-82
2021/01/20 06:59:21;;;;;;;15.98;8.50;;;7.70;87.40;;;;;;5114556;27;20062;-82
2021/01/20 07:02:02;;;;;;;11.90;8.15;;;7.80;87.40;;;;;;5137386;27;20023;-82
2021/01/20 07:04:37;;;;;;;10.82;8.00;;;7.70;87.30;;;;;;5135616;27;20042;-82
2021/01/20 07:07:04;;;;;;;11.55;8.40;;;7.70;87.20;;;;;;5129694;27;20551;-82
2021/01/20 07:09:48;;;;;;;14.70;8.20;;;7.70;87.30;;;;;;5112473;27;20023;-81
2021/01/20 07:12:16;;;;;;;11.48;8.18;;;7.80;87.20;;;;;;5135916;27;20090;-81
2021/01/20 07:14:43;;;;;;;11.15;8.25;;;7.70;87.20;;;;;;5130971;27;20039;-81
2021/01/20 07:17:10;;;;;;;15.00;8.65;;;7.70;87.00;;;;;;5113420;27;20031;-81
2021/01/20 07:19:40;;;;;;;11.98;7.93;;;7.70;87.20;;;;;;5115883;27;20498;-80
2021/01/20 07:22:06;;;;;;;12.13;7.40;;;7.70;87.60;;;;;;5115891;27;20030;-82
2021/01/20 07:24:33;;;;;;;10.70;7.82;;;7.90;87.10;;;;;;5124391;27;20142;-79
2021/01/20 07:27:10;;;;;;;11.20;7.35;;;7.80;87.00;;;;;;5135253;27;20035;-80
2021/01/20 07:29:42;;;;;;;12.90;7.72;;;7.70;86.90;;;;;;5143568;27;20042;-80
2021/01/20 07:32:09;;;;;;;10.73;7.47;;;7.70;87.00;;;;;;5110056;27;20380;-80
2021/01/20 07:34:43;;;;;;;11.48;7.50;;;7.80;87.00;;;;;;5132865;27;20035;-80
2021/01/20 07:37:14;;;;;;;10.57;7.32;;;7.80;86.90;;;;;;5129321;27;20031;-80
2021/01/20 07:39:41;;;;;;;13.27;7.63;;;7.70;86.80;;;;;;5126588;27;20041;-77
2021/01/20 07:42:07;;;;;;;9.65;7.63;;;7.80;87.00;;;;;;5134188;27;20114;-79
2021/01/20 07:44:35;;;;;;;10.68;8.05;;;7.80;86.90;;;;;;5115070;27;20081;-79
2021/01/20 07:47:06;;;;;;;8.98;7.30;;;7.70;86.90;;;;;;5135030;27;20115;-79
2021/01/20 07:49:33;;;;;;;10.48;7.07;;;7.70;87.00;;;;;;5130958;27;20032;-81
2021/01/20 07:52:09;;;;;;;11.55;7.80;;;7.80;87.20;;;;;;5117905;27;20039;-82
2021/01/20 07:54:36;;;;;;;10.25;8.15;;;7.70;87.40;;;;;;5109105;27;20043;-79
2021/01/20 07:57:03;;;;;;;10.60;7.45;;;7.70;87.50;;;;;;5127510;27;20119;-79
2021/01/20 07:59:29;;;;;;;13.05;8.23;;;7.70;87.70;;;;;;5123637;27;20056;-81
2021/01/20 08:02:08;;;;;;;10.85;7.07;;;7.60;87.80;;;;;;5123039;27;20070;-82
2021/01/20 08:04:34;;;;;;;9.93;7.68;;;7.70;88.10;;;;;;5125033;27;20035;-83
2021/01/20 08:07:00;;;;;;;9.52;7.18;;;7.70;88.60;;;;;;5126528;27;20069;-83
2021/01/20 08:09:44;;;;;;;10.88;7.32;;;7.60;88.30;;;;;;5107667;27;20505;-83
2021/01/20 08:12:14;;;;;;;11.52;7.72;;;7.70;88.40;;;;;;5126848;27;20106;-80
2021/01/20 08:14:44;;;;;;;11.32;8.05;;;7.60;88.40;;;;;;5125465;27;20080;-80
2021/01/20 08:17:11;;;;;;;11.40;8.38;;;7.60;88.70;;;;;;5128346;27;20037;-78
2021/01/20 08:19:39;;;;;;;10.10;7.35;;;7.60;88.90;;;;;;5128529;27;20031;-81
2021/01/20 08:22:13;;;;;;;9.60;7.28;;;7.60;89.00;;;;;;5127516;27;20061;-80
2021/01/20 08:24:47;;;;;;;10.85;7.50;;;7.60;89.40;;;;;;5123272;27;20043;-81
2021/01/20 08:27:14;;;;;;;11.70;7.70;;;7.60;89.50;;;;;;5123518;27;20725;-78
2021/01/20 08:29:50;;;;;;;11.63;7.93;;;7.50;89.60;;;;;;5119237;27;20027;-76
2021/01/20 08:32:16;;;;;;;9.43;7.20;;;7.50;89.50;;;;;;5122939;27;20043;-76
2021/01/20 08:34:44;;;;;;;8.80;7.13;;;7.60;89.60;;;;;;5125228;27;20035;-76
2021/01/20 08:37:33;;;;;;;9.32;7.35;;;7.50;89.60;;;;;;5139872;27;20124;-76
2021/01/20 08:40:01;;;;;;;10.55;6.97;;;7.60;89.50;;;;;;5126111;27;20042;-76
2021/01/20 08:42:32;;;;;;;10.43;7.03;;;7.60;89.30;;;;;;5127516;27;20065;-77
2021/01/20 08:45:07;;;;;;;10.02;6.68;;;7.60;89.20;;;;;;5129257;27;20027;-76
2021/01/20 08:47:43;;;;;;;9.70;6.60;;;7.70;89.00;;;;;;5125429;27;20474;-77
2021/01/20 08:50:10;;;;;;;8.73;6.25;;;7.70;88.80;;;;;;5121932;27;20035;-77
2021/01/20 08:52:48;;;;;;;12.85;7.13;;;7.80;88.50;;;;;;5124909;27;20671;-77
2021/01/20 08:55:26;;;;;;;9.25;6.90;;;7.80;88.40;;;;;;5129560;27;20036;-78
2021/01/20 08:58:16;;;;;;;8.02;5.97;;;7.80;88.30;;;;;;5132270;27;20039;-77
2021/01/20 09:00:43;;;;;;;8.75;5.97;;;7.90;88.00;;;;;;5131576;27;20032;-77
2021/01/20 09:03:23;;;;;;;7.60;5.82;;;7.90;88.50;;;;;;5130384;27;20153;-77
2021/01/20 09:05:51;;;;;;;9.50;6.18;;;7.90;87.80;;;;;;5126981;27;20085;-77
2021/01/20 09:08:17;;;;;;;8.10;6.30;;;8.00;87.70;;;;;;5127563;27;20039;-77
2021/01/20 09:10:44;;;;;;;10.02;6.18;;;8.00;87.70;;;;;;5112101;27;20039;-77
2021/01/20 09:13:11;;;;;;;11.40;6.35;;;8.00;87.50;;;;;;5132462;27;20027;-77
2021/01/20 09:15:37;;;;;;;9.52;5.78;;;8.10;87.50;;;;;;5131288;27;20046;-78
2021/01/20 09:18:06;;;;;;;7.03;6.32;;;8.10;87.40;;;;;;5129570;27;20063;-78
2021/01/20 09:20:37;;;;;;;12.73;5.70;;;8.10;87.10;;;;;;5126602;27;20043;-76
2021/01/20 09:23:05;;;;;;;13.38;7.35;;;8.10;87.20;;;;;;5136401;27;20039;-77
2021/01/20 09:25:33;;;;;;;9.80;6.20;;;8.20;87.20;;;;;;5129449;27;20041;-77
2021/01/20 09:27:59;;;;;;;12.18;5.88;;;8.10;86.90;;;;;;5129070;27;20035;-77
2021/01/20 09:30:25;;;;;;;8.43;6.03;;;8.20;86.90;;;;;;5124117;27;20031;-77
2021/01/20 09:32:52;;;;;;;9.40;6.30;;;8.20;86.70;;;;;;5114776;27;20051;-78
2021/01/20 09:35:18;;;;;;;8.68;6.25;;;8.20;86.60;;;;;;5138775;27;20031;-77
2021/01/20 09:37:45;;;;;;;8.85;5.28;;;8.30;86.50;;;;;;5135012;27;20481;-77
2021/01/20 09:40:13;;;;;;;8.75;5.32;;;8.30;86.40;;;;;;5114962;27;20043;-77
2021/01/20 09:42:41;;;;;;;7.60;5.68;;;8.30;86.20;;;;;;5133219;27;20035;-77
2021/01/20 09:45:09;;;;;;;7.50;5.28;;;8.40;86.30;;;;;;5115096;27;20138;-78
2021/01/20 09:47:36;;;;;;;8.73;5.72;;;8.30;86.00;;;;;;5132705;27;20062;-78
2021/01/20 09:50:04;;;;;;;6.65;5.18;;;8.40;86.10;;;;;;5118735;27;20039;-78
2021/01/20 09:52:29;;;;;;;6.95;5.50;;;8.40;85.90;;;;;;5133092;27;20031;-78
2021/01/20 09:54:55;;;;;;;6.82;4.15;;;8.40;85.80;;;;;;5104227;27;20386;-77
2021/01/20 09:57:22;;;;;;;7.28;5.07;;;8.40;85.70;;;;;;5119961;27;20039;-77
2021/01/20 09:59:48;;;;;;;7.68;5.15;;;8.50;85.80;;;;;;5136899;27;20033;-78
2021/01/20 10:02:15;;;;;;;6.00;4.95;;;8.50;85.80;;;;;;5128378;27;20435;-77
2021/01/20 10:04:41;;;;;;;6.85;5.18;;;8.50;85.70;;;;;;5131589;27;20038;-78
2021/01/20 10:07:08;;;;;;;8.20;5.20;;;8.50;85.70;;;;;;5128424;27;20039;-77
2021/01/20 10:09:34;;;;;;;6.55;4.70;;;8.50;85.60;;;;;;5135940;27;20047;-77
2021/01/20 10:12:00;;;;;;;7.07;4.45;;;8.50;85.50;;;;;;5132101;27;20498;-80
2021/01/20 10:14:26;;;;;;;6.38;4.75;;;8.60;85.50;;;;;;5120257;27;20087;-83
2021/01/20 10:16:52;;;;;;;6.75;5.05;;;8.60;85.50;;;;;;5110703;27;20183;-80
2021/01/20 10:19:19;;;;;;;7.22;4.32;;;8.60;85.30;;;;;;5126018;27;20576;-79
2021/01/20 10:21:45;;;;;;;5.85;4.05;;;8.70;85.90;;;;;;5130308;27;20027;-81
2021/01/20 10:24:14;;;;;;;5.28;4.13;;;8.70;84.90;;;;;;5132200;27;20039;-81
2021/01/20 10:26:41;;;;;;;6.30;4.03;;;8.70;85.00;;;;;;5121960;27;20044;-80
2021/01/20 10:29:07;;;;;;;5.70;4.20;;;8.70;84.90;;;;;;5112801;27;20038;-80
2021/01/20 10:31:35;;;;;;;6.53;4.65;;;8.70;84.80;;;;;;5129721;27;20066;-80
2021/01/20 10:34:04;;;;;;;5.53;4.22;;;8.80;84.80;;;;;;5135245;27;20474;-80
2021/01/20 10:36:30;;;;;;;6.65;4.47;;;8.80;84.60;;;;;;5131260;27;20034;-80
2021/01/20 10:38:57;;;;;;;6.57;3.95;;;8.90;84.70;;;;;;5135858;27;20043;-79
2021/01/20 10:41:23;;;;;;;5.70;3.80;;;8.90;84.60;;;;;;5132184;27;20041;-78
2021/01/20 10:43:51;;;;;;;6.20;4.18;;;8.90;85.00;;;;;;5135645;27;20176;-79
2021/01/20 10:46:17;;;;;;;5.13;3.92;;;8.90;84.50;;;;;;5141664;27;20045;-81
2021/01/20 10:48:44;;;;;;;5.20;3.75;;;9.00;84.50;;;;;;5132572;27;20035;-79
2021/01/20 10:51:10;;;;;;;5.72;4.05;;;9.00;84.30;;;;;;5138187;27;20352;-81
2021/01/20 10:53:40;;;;;;;4.75;3.70;;;9.00;84.50;;;;;;5131914;27;20135;-80
2021/01/20 10:56:06;;;;;;;4.60;3.60;;;9.00;84.40;;;;;;5131087;27;20047;-80
2021/01/20 10:58:32;;;;;;;8.05;4.05;;;9.00;84.30;;;;;;5124602;27;20043;-81
2021/01/20 11:00:58;;;;;;;4.18;3.42;;;9.00;84.20;;;;;;5117361;27;20046;-77
2021/01/20 11:03:24;;;;;;;5.63;4.18;;;9.10;84.20;;;;;;5125960;27;20036;-78
2021/01/20 11:05:50;;;;;;;6.40;3.78;;;9.10;84.20;;;;;;5127445;27;20031;-77
2021/01/20 11:08:16;;;;;;;7.47;4.20;;;9.20;84.20;;;;;;5115562;27;20036;-77
2021/01/20 11:10:42;;;;;;;4.22;3.50;;;9.10;84.00;;;;;;5102654;27;20063;-77
2021/01/20 11:13:08;;;;;;;4.72;3.10;;;9.20;84.00;;;;;;5133293;27;20534;-79
2021/01/20 11:15:39;;;;;;;5.65;3.05;;;9.20;84.10;;;;;;5109449;27;20038;-82
2021/01/20 11:18:05;;;;;;;5.32;3.35;;;9.20;83.90;;;;;;5123272;27;20035;-81
2021/01/20 11:20:32;;;;;;;5.18;3.00;;;9.20;83.60;;;;;;5126088;27;20467;-82
2021/01/20 11:22:58;;;;;;;5.40;3.33;;;9.20;83.70;;;;;;5132284;27;20111;-80
2021/01/20 11:25:24;;;;;;;4.63;3.20;;;9.30;83.70;;;;;;5128872;27;20031;-78
2021/01/20 11:27:50;;;;;;;3.60;2.58;;;9.40;83.70;;;;;;5121736;27;20036;-82
2021/01/20 11:30:18;;;;;;;5.75;2.80;;;9.40;83.30;;;;;;5124456;27;20047;-80
2021/01/20 11:32:45;;;;;;;4.47;2.92;;;9.50;83.40;;;;;;5130039;27;20504;-80
2021/01/20 11:35:12;;;;;;;4.75;3.20;;;9.50;83.20;;;;;;5123410;27;20080;-81
2021/01/20 11:37:38;;;;;;;6.47;3.00;;;9.50;83.10;;;;;;5125135;27;20035;-80
2021/01/20 11:40:06;;;;;;;3.78;2.92;;;9.50;83.00;;;;;;5125142;27;20038;-80
2021/01/20 11:42:32;;;;;;;3.97;2.80;;;9.40;82.90;;;;;;5123765;27;20039;-79
2021/01/20 11:44:58;;;;;;;5.15;2.50;;;9.40;83.00;;;;;;5120467;27;20035;-79
2021/01/20 11:47:23;;;;;;;4.97;2.78;;;9.40;83.00;;;;;;5112723;27;20027;-77
2021/01/20 11:49:50;;;;;;;3.15;2.50;;;9.40;83.00;;;;;;5125017;27;20035;-79
2021/01/20 11:52:17;;;;;;;6.32;2.78;;;9.40;82.90;;;;;;5115876;27;20042;-79
2021/01/20 11:54:44;;;;;;;5.85;2.63;;;9.40;82.70;;;;;;5122972;27;20039;-80
2021/01/20 11:57:11;;;;;;;5.18;2.83;;;9.40;83.00;;;;;;5103905;27;20051;-79
2021/01/20 11:59:38;;;;;;;3.50;2.80;;;9.40;83.00;;;;;;5131679;27;20040;-79
2021/01/20 12:02:04;;;;;;;3.95;2.42;;;9.40;82.90;;;;;;5121913;27;20454;-79
2021/01/20 12:04:30;;;;;;;3.78;2.65;;;9.40;82.80;;;;;;5130171;27;20079;-80
2021/01/20 12:06:56;;;;;;;3.30;2.20;;;9.40;82.70;;;;;;5129116;27;20027;-81
2021/01/20 12:09:22;;;;;;;4.38;2.55;;;9.40;82.70;;;;;;5127620;27;20389;-80
2021/01/20 12:11:48;;;;;;;4.60;2.70;;;9.40;82.80;;;;;;5102221;27;20136;-80
2021/01/20 12:14:15;;;;;;;4.80;2.72;;;9.50;82.70;;;;;;5137070;27;20482;-79
2021/01/20 12:16:41;;;;;;;3.00;2.17;;;9.50;82.40;;;;;;5133805;27;20474;-80
2021/01/20 12:19:08;;;;;;;4.05;2.50;;;9.50;82.30;;;;;;5141966;27;20035;-79
2021/01/20 12:21:34;;;;;;;3.95;2.45;;;9.60;82.20;;;;;;5127330;27;20031;-78
2021/01/20 12:24:00;;;;;;;5.57;2.70;;;9.60;81.90;;;;;;5127660;27;20043;-79
2021/01/20 12:26:27;;;;;;;3.60;2.60;;;9.70;81.80;;;;;;5136297;27;20184;-81
2021/01/20 12:28:53;;;;;;;2.83;2.25;;;9.80;81.30;;;;;;5124549;27;20390;-80
2021/01/20 15:24:17;;;;;;;2.45;0.88;;;22.10;53.30;;;;;;5082133;27;20882;-64
2021/01/20 15:26:44;;;;;;;3.13;1.00;;;22.20;51.60;;;;;;5081772;28;20048;-62
2021/01/20 15:29:09;;;;;;;1.58;0.93;;;22.20;50.20;;;;;;5084985;28;20032;-61
2021/01/20 15:31:35;;;;;;;1.35;0.70;;;22.30;49.70;;;;;;5085704;28;20472;-61
2021/01/20 15:34:01;;;;;;;1.73;0.93;;;22.30;49.60;;;;;;5077109;28;20492;-63
2021/01/20 15:36:27;;;;;;;1.77;0.95;;;22.30;49.30;;;;;;5085507;28;20039;-60
2021/01/20 15:38:53;;;;;;;2.88;0.75;;;22.30;49.20;;;;;;5086269;28;20533;-62
2021/01/20 15:41:18;;;;;;;2.08;1.08;;;22.40;49.10;;;;;;5085065;28;20055;-63
2021/01/20 15:43:44;;;;;;;2.72;1.05;;;22.50;49.00;;;;;;5085404;28;20035;-63